sensor_id;sensor_type;location;lat;lon;timestamp;P1;durP1;ratioP1;P2;durP2;ratioP2
8466;SDS011;4270;48.148;11.648;2023-05-14T00:01:26;21.33;;;14.70;;
8466;SDS011;4270;48.148;11.648;2023-05-14T00:03:52;18.70;;;12.03;;
8466;SDS011;4270;48.148;11.648;2023-05-14T00:06:17;20.60;;;13.20;;
8466;SDS011;4270;48.148;11.648;2023-05-14T00:08:42;18.30;;;13.13;;
8466;SDS011;4270;48.148;11.648;2023-05-14T00:11:07;18.40;;;12.40;;
8466;SDS011;4270;48.148;11.648;2023-05-14T00:13:35;17.90;;;13.73;;
8466;SDS011;4270;48.148;11.648;2023-05-14T00:16:01;16.90;;;12.30;;
8466;SDS011;4270;48.148;11.648;2023-05-14T00:18:26;19.97;;;13.67;;
8466;SDS011;4270;48.148;11.648;2023-05-14T00:20:51;18.30;;;13.00;;
8466;SDS011;4270;48.148;11.648;2023-05-14T00:23:19;19.00;;;12.53;;
8466;SDS011;4270;48.148;11.648;2023-05-14T00:25:44;21.00;;;13.23;;
8466;SDS011;4270;48.148;11.648;2023-05-14T00:28:09;19.02;;;12.98;;
8466;SDS011;4270;48.148;11.648;2023-05-14T00:30:34;15.93;;;12.00;;
8466;SDS011;4270;48.148;11.648;2023-05-14T00:32:59;21.20;;;12.83;;
8466;SDS011;4270;48.148;11.648;2023-05-14T00:35:25;18.50;;;12.67;;
8466;SDS011;4270;48.148;11.648;2023-05-14T00:37:50;18.20;;;12.67;;
8466;SDS011;4270;48.148;11.648;2023-05-14T00:40:15;18.90;;;12.93;;
8466;SDS011;4270;48.148;11.648;2023-05-14T00:42:40;17.87;;;12.10;;
8466;SDS011;4270;48.148;11.648;2023-05-14T00:45:06;17.63;;;12.87;;
8466;SDS011;4270;48.148;11.648;2023-05-14T00:47:31;18.77;;;12.47;;
8466;SDS011;4270;48.148;11.648;2023-05-14T00:49:58;16.27;;;11.53;;
8466;SDS011;4270;48.148;11.648;2023-05-14T00:52:23;16.50;;;11.50;;
8466;SDS011;4270;48.148;11.648;2023-05-14T00:54:49;17.83;;;12.33;;
8466;SDS011;4270;48.148;11.648;2023-05-14T00:57:14;19.10;;;13.07;;
8466;SDS011;4270;48.148;11.648;2023-05-14T00:59:39;16.50;;;11.93;;
8466;SDS011;4270;48.148;11.648;2023-05-14T01:02:06;20.60;;;12.57;;
8466;SDS011;4270;48.148;11.648;2023-05-14T01:04:31;16.93;;;11.80;;
8466;SDS011;4270;48.148;11.648;2023-05-14T01:07:01;15.67;;;11.87;;
8466;SDS011;4270;48.148;11.648;2023-05-14T01:09:30;15.47;;;12.10;;
8466;SDS011;4270;48.148;11.648;2023-05-14T01:14:42;17.33;;;12.27;;
8466;SDS011;4270;48.148;11.648;2023-05-14T01:17:09;15.37;;;11.67;;
8466;SDS011;4270;48.148;11.648;2023-05-14T01:19:41;17.97;;;12.70;;
8466;SDS011;4270;48.148;11.648;2023-05-14T01:22:07;15.93;;;12.10;;
8466;SDS011;4270;48.148;11.648;2023-05-14T01:24:32;18.57;;;12.77;;
8466;SDS011;4270;48.148;11.648;2023-05-14T01:27:00;17.70;;;11.83;;
8466;SDS011;4270;48.148;11.648;2023-05-14T01:29:26;15.53;;;11.00;;
8466;SDS011;4270;48.148;11.648;2023-05-14T01:31:53;16.80;;;12.23;;
8466;SDS011;4270;48.148;11.648;2023-05-14T01:34:20;16.93;;;12.10;;
8466;SDS011;4270;48.148;11.648;2023-05-14T01:36:46;18.37;;;12.90;;
8466;SDS011;4270;48.148;11.648;2023-05-14T01:39:12;19.37;;;12.97;;
8466;SDS011;4270;48.148;11.648;2023-05-14T01:41:37;17.60;;;12.63;;
8466;SDS011;4270;48.148;11.648;2023-05-14T01:44:03;14.67;;;11.17;;
8466;SDS011;4270;48.148;11.648;2023-05-14T01:46:32;19.33;;;12.20;;
8466;SDS011;4270;48.148;11.648;2023-05-14T01:48:57;18.77;;;12.50;;
8466;SDS011;4270;48.148;11.648;2023-05-14T01:51:22;15.77;;;11.67;;
8466;SDS011;4270;48.148;11.648;2023-05-14T01:53:47;19.27;;;13.33;;
8466;SDS011;4270;48.148;11.648;2023-05-14T01:56:13;16.20;;;12.10;;
8466;SDS011;4270;48.148;11.648;2023-05-14T01:58:38;15.53;;;11.40;;
8466;SDS011;4270;48.148;11.648;2023-05-14T02:01:03;17.00;;;13.03;;
8466;SDS011;4270;48.148;11.648;2023-05-14T02:03:28;17.60;;;12.50;;
8466;SDS011;4270;48.148;11.648;2023-05-14T02:05:53;21.53;;;12.47;;
8466;SDS011;4270;48.148;11.648;2023-05-14T02:08:19;18.23;;;12.33;;
8466;SDS011;4270;48.148;11.648;2023-05-14T02:10:44;19.77;;;13.70;;
8466;SDS011;4270;48.148;11.648;2023-05-14T02:13:09;21.07;;;14.07;;
8466;SDS011;4270;48.148;11.648;2023-05-14T02:15:35;18.55;;;13.55;;
8466;SDS011;4270;48.148;11.648;2023-05-14T02:18:00;19.53;;;12.77;;
8466;SDS011;4270;48.148;11.648;2023-05-14T02:20:25;19.80;;;12.87;;
8466;SDS011;4270;48.148;11.648;2023-05-14T02:22:51;18.07;;;12.50;;
8466;SDS011;4270;48.148;11.648;2023-05-14T02:25:16;18.77;;;12.70;;
8466;SDS011;4270;48.148;11.648;2023-05-14T02:27:41;18.67;;;12.93;;
8466;SDS011;4270;48.148;11.648;2023-05-14T02:30:07;19.50;;;13.80;;
8466;SDS011;4270;48.148;11.648;2023-05-14T02:32:32;24.27;;;15.60;;
8466;SDS011;4270;48.148;11.648;2023-05-14T02:34:57;24.67;;;14.83;;
8466;SDS011;4270;48.148;11.648;2023-05-14T02:37:22;21.90;;;14.40;;
8466;SDS011;4270;48.148;11.648;2023-05-14T02:39:48;22.27;;;14.57;;
8466;SDS011;4270;48.148;11.648;2023-05-14T02:42:13;26.43;;;15.37;;
8466;SDS011;4270;48.148;11.648;2023-05-14T02:44:38;24.53;;;14.20;;
8466;SDS011;4270;48.148;11.648;2023-05-14T02:47:03;25.40;;;15.27;;
8466;SDS011;4270;48.148;11.648;2023-05-14T02:49:29;23.67;;;15.40;;
8466;SDS011;4270;48.148;11.648;2023-05-14T02:51:54;21.50;;;14.23;;
8466;SDS011;4270;48.148;11.648;2023-05-14T02:54:19;24.63;;;14.97;;
8466;SDS011;4270;48.148;11.648;2023-05-14T02:56:44;18.80;;;13.00;;
8466;SDS011;4270;48.148;11.648;2023-05-14T02:59:09;20.03;;;13.60;;
8466;SDS011;4270;48.148;11.648;2023-05-14T03:01:35;18.27;;;13.40;;
8466;SDS011;4270;48.148;11.648;2023-05-14T03:04:00;23.07;;;15.53;;
8466;SDS011;4270;48.148;11.648;2023-05-14T03:06:25;23.30;;;14.83;;
8466;SDS011;4270;48.148;11.648;2023-05-14T03:08:50;21.93;;;14.70;;
8466;SDS011;4270;48.148;11.648;2023-05-14T03:11:15;23.30;;;14.77;;
8466;SDS011;4270;48.148;11.648;2023-05-14T03:13:40;18.27;;;13.80;;
8466;SDS011;4270;48.148;11.648;2023-05-14T03:16:06;17.10;;;12.97;;
8466;SDS011;4270;48.148;11.648;2023-05-14T03:18:31;19.87;;;13.57;;
8466;SDS011;4270;48.148;11.648;2023-05-14T03:20:58;18.23;;;13.00;;
8466;SDS011;4270;48.148;11.648;2023-05-14T03:23:23;20.07;;;13.00;;
8466;SDS011;4270;48.148;11.648;2023-05-14T03:25:48;17.80;;;12.73;;
8466;SDS011;4270;48.148;11.648;2023-05-14T03:28:14;20.83;;;13.57;;
8466;SDS011;4270;48.148;11.648;2023-05-14T03:30:40;19.03;;;12.80;;
8466;SDS011;4270;48.148;11.648;2023-05-14T03:33:05;16.00;;;12.20;;
8466;SDS011;4270;48.148;11.648;2023-05-14T03:35:30;21.77;;;13.53;;
8466;SDS011;4270;48.148;11.648;2023-05-14T03:37:56;19.67;;;12.57;;
8466;SDS011;4270;48.148;11.648;2023-05-14T03:40:23;20.13;;;14.20;;
8466;SDS011;4270;48.148;11.648;2023-05-14T03:42:48;20.37;;;13.77;;
8466;SDS011;4270;48.148;11.648;2023-05-14T03:45:13;18.05;;;13.10;;
8466;SDS011;4270;48.148;11.648;2023-05-14T03:47:38;21.27;;;13.27;;
8466;SDS011;4270;48.148;11.648;2023-05-14T03:50:03;23.17;;;14.83;;
8466;SDS011;4270;48.148;11.648;2023-05-14T03:52:29;18.00;;;13.40;;
8466;SDS011;4270;48.148;11.648;2023-05-14T03:54:54;22.00;;;14.63;;
8466;SDS011;4270;48.148;11.648;2023-05-14T03:57:19;20.37;;;13.43;;
8466;SDS011;4270;48.148;11.648;2023-05-14T03:59:45;23.27;;;14.77;;
8466;SDS011;4270;48.148;11.648;2023-05-14T04:02:10;22.10;;;14.87;;
8466;SDS011;4270;48.148;11.648;2023-05-14T04:04:35;26.33;;;14.80;;
8466;SDS011;4270;48.148;11.648;2023-05-14T04:07:00;24.73;;;15.40;;
8466;SDS011;4270;48.148;11.648;2023-05-14T04:09:26;25.57;;;15.33;;
8466;SDS011;4270;48.148;11.648;2023-05-14T04:11:51;24.37;;;15.23;;
8466;SDS011;4270;48.148;11.648;2023-05-14T04:14:16;25.97;;;15.57;;
8466;SDS011;4270;48.148;11.648;2023-05-14T04:16:41;26.40;;;15.33;;
8466;SDS011;4270;48.148;11.648;2023-05-14T04:19:06;22.87;;;14.53;;
8466;SDS011;4270;48.148;11.648;2023-05-14T04:21:31;26.40;;;15.43;;
8466;SDS011;4270;48.148;11.648;2023-05-14T04:23:57;27.57;;;16.40;;
8466;SDS011;4270;48.148;11.648;2023-05-14T04:26:22;22.83;;;15.20;;
8466;SDS011;4270;48.148;11.648;2023-05-14T04:28:47;24.93;;;15.13;;
8466;SDS011;4270;48.148;11.648;2023-05-14T04:31:12;22.57;;;15.30;;
8466;SDS011;4270;48.148;11.648;2023-05-14T04:33:38;23.73;;;16.23;;
8466;SDS011;4270;48.148;11.648;2023-05-14T04:36:03;25.50;;;16.20;;
8466;SDS011;4270;48.148;11.648;2023-05-14T04:38:29;24.00;;;16.30;;
8466;SDS011;4270;48.148;11.648;2023-05-14T04:40:55;24.00;;;15.90;;
8466;SDS011;4270;48.148;11.648;2023-05-14T04:43:21;28.20;;;18.10;;
8466;SDS011;4270;48.148;11.648;2023-05-14T04:45:46;24.97;;;15.97;;
8466;SDS011;4270;48.148;11.648;2023-05-14T04:48:11;25.40;;;14.10;;
8466;SDS011;4270;48.148;11.648;2023-05-14T04:50:36;25.83;;;16.67;;
8466;SDS011;4270;48.148;11.648;2023-05-14T04:53:01;25.53;;;16.23;;
8466;SDS011;4270;48.148;11.648;2023-05-14T04:55:27;28.10;;;17.57;;
8466;SDS011;4270;48.148;11.648;2023-05-14T04:57:52;30.10;;;17.53;;
8466;SDS011;4270;48.148;11.648;2023-05-14T05:00:17;24.20;;;15.67;;
8466;SDS011;4270;48.148;11.648;2023-05-14T05:02:43;26.57;;;15.93;;
8466;SDS011;4270;48.148;11.648;2023-05-14T05:05:08;24.80;;;15.17;;
8466;SDS011;4270;48.148;11.648;2023-05-14T05:07:33;26.90;;;17.03;;
8466;SDS011;4270;48.148;11.648;2023-05-14T05:09:59;33.77;;;17.60;;
8466;SDS011;4270;48.148;11.648;2023-05-14T05:12:24;25.73;;;17.10;;
8466;SDS011;4270;48.148;11.648;2023-05-14T05:14:50;28.20;;;16.50;;
8466;SDS011;4270;48.148;11.648;2023-05-14T05:17:15;26.30;;;17.20;;
8466;SDS011;4270;48.148;11.648;2023-05-14T05:19:40;28.02;;;16.92;;
8466;SDS011;4270;48.148;11.648;2023-05-14T05:22:05;26.93;;;16.77;;
8466;SDS011;4270;48.148;11.648;2023-05-14T05:24:30;28.83;;;16.87;;
8466;SDS011;4270;48.148;11.648;2023-05-14T05:26:55;28.87;;;16.30;;
8466;SDS011;4270;48.148;11.648;2023-05-14T05:29:21;28.77;;;17.53;;
8466;SDS011;4270;48.148;11.648;2023-05-14T05:31:46;33.37;;;18.20;;
8466;SDS011;4270;48.148;11.648;2023-05-14T05:34:12;25.53;;;16.10;;
8466;SDS011;4270;48.148;11.648;2023-05-14T05:36:37;32.57;;;17.27;;
8466;SDS011;4270;48.148;11.648;2023-05-14T05:39:02;25.20;;;16.00;;
8466;SDS011;4270;48.148;11.648;2023-05-14T05:41:27;25.90;;;15.87;;
8466;SDS011;4270;48.148;11.648;2023-05-14T05:43:54;29.90;;;17.87;;
8466;SDS011;4270;48.148;11.648;2023-05-14T05:46:19;30.10;;;18.20;;
8466;SDS011;4270;48.148;11.648;2023-05-14T05:48:45;27.80;;;16.50;;
8466;SDS011;4270;48.148;11.648;2023-05-14T05:51:10;28.00;;;16.27;;
8466;SDS011;4270;48.148;11.648;2023-05-14T05:53:35;25.77;;;17.43;;
8466;SDS011;4270;48.148;11.648;2023-05-14T05:56:00;29.50;;;17.97;;
8466;SDS011;4270;48.148;11.648;2023-05-14T05:58:25;32.93;;;17.43;;
8466;SDS011;4270;48.148;11.648;2023-05-14T06:00:51;27.97;;;17.37;;
8466;SDS011;4270;48.148;11.648;2023-05-14T06:03:17;30.43;;;17.20;;
8466;SDS011;4270;48.148;11.648;2023-05-14T06:05:42;28.07;;;16.60;;
8466;SDS011;4270;48.148;11.648;2023-05-14T06:08:07;26.90;;;16.90;;
8466;SDS011;4270;48.148;11.648;2023-05-14T06:10:33;28.13;;;17.27;;
8466;SDS011;4270;48.148;11.648;2023-05-14T06:13:00;26.73;;;16.77;;
8466;SDS011;4270;48.148;11.648;2023-05-14T06:15:25;28.13;;;17.00;;
8466;SDS011;4270;48.148;11.648;2023-05-14T06:17:50;23.07;;;14.37;;
8466;SDS011;4270;48.148;11.648;2023-05-14T06:20:15;24.50;;;17.10;;
8466;SDS011;4270;48.148;11.648;2023-05-14T06:22:41;28.70;;;17.73;;
8466;SDS011;4270;48.148;11.648;2023-05-14T06:25:06;28.20;;;17.53;;
8466;SDS011;4270;48.148;11.648;2023-05-14T06:27:31;26.17;;;16.10;;
8466;SDS011;4270;48.148;11.648;2023-05-14T06:29:57;25.40;;;16.60;;
8466;SDS011;4270;48.148;11.648;2023-05-14T06:32:22;28.13;;;16.17;;
8466;SDS011;4270;48.148;11.648;2023-05-14T06:34:47;29.53;;;16.70;;
8466;SDS011;4270;48.148;11.648;2023-05-14T06:37:12;25.67;;;16.93;;
8466;SDS011;4270;48.148;11.648;2023-05-14T06:39:37;26.87;;;17.00;;
8466;SDS011;4270;48.148;11.648;2023-05-14T06:42:03;30.47;;;15.43;;
8466;SDS011;4270;48.148;11.648;2023-05-14T06:44:28;23.70;;;15.40;;
8466;SDS011;4270;48.148;11.648;2023-05-14T06:46:53;22.80;;;15.70;;
8466;SDS011;4270;48.148;11.648;2023-05-14T06:49:19;23.10;;;15.80;;
8466;SDS011;4270;48.148;11.648;2023-05-14T06:51:44;25.60;;;16.53;;
8466;SDS011;4270;48.148;11.648;2023-05-14T06:54:09;28.87;;;16.70;;
8466;SDS011;4270;48.148;11.648;2023-05-14T06:56:35;24.43;;;15.37;;
8466;SDS011;4270;48.148;11.648;2023-05-14T06:59:00;28.37;;;16.13;;
8466;SDS011;4270;48.148;11.648;2023-05-14T07:01:25;27.17;;;15.77;;
8466;SDS011;4270;48.148;11.648;2023-05-14T07:03:50;28.67;;;17.90;;
8466;SDS011;4270;48.148;11.648;2023-05-14T07:06:15;27.30;;;16.00;;
8466;SDS011;4270;48.148;11.648;2023-05-14T07:08:41;23.40;;;15.20;;
8466;SDS011;4270;48.148;11.648;2023-05-14T07:11:06;24.73;;;16.00;;
8466;SDS011;4270;48.148;11.648;2023-05-14T07:13:31;23.40;;;15.03;;
8466;SDS011;4270;48.148;11.648;2023-05-14T07:15:56;22.73;;;14.83;;
8466;SDS011;4270;48.148;11.648;2023-05-14T07:18:22;23.33;;;15.03;;
8466;SDS011;4270;48.148;11.648;2023-05-14T07:20:47;19.37;;;13.93;;
8466;SDS011;4270;48.148;11.648;2023-05-14T07:23:12;22.30;;;15.10;;
8466;SDS011;4270;48.148;11.648;2023-05-14T07:25:37;22.97;;;15.80;;
8466;SDS011;4270;48.148;11.648;2023-05-14T07:28:02;23.30;;;15.70;;
8466;SDS011;4270;48.148;11.648;2023-05-14T07:30:27;20.40;;;15.20;;
8466;SDS011;4270;48.148;11.648;2023-05-14T07:32:53;21.57;;;14.00;;
8466;SDS011;4270;48.148;11.648;2023-05-14T07:35:18;19.50;;;13.63;;
8466;SDS011;4270;48.148;11.648;2023-05-14T07:37:43;19.20;;;12.90;;
8466;SDS011;4270;48.148;11.648;2023-05-14T07:40:08;22.03;;;14.20;;
8466;SDS011;4270;48.148;11.648;2023-05-14T07:42:34;22.47;;;13.87;;
8466;SDS011;4270;48.148;11.648;2023-05-14T07:44:59;20.27;;;14.20;;
8466;SDS011;4270;48.148;11.648;2023-05-14T07:47:24;20.43;;;13.90;;
8466;SDS011;4270;48.148;11.648;2023-05-14T07:49:52;24.07;;;14.53;;
8466;SDS011;4270;48.148;11.648;2023-05-14T07:52:18;19.33;;;13.40;;
8466;SDS011;4270;48.148;11.648;2023-05-14T07:54:43;21.97;;;12.43;;
8466;SDS011;4270;48.148;11.648;2023-05-14T07:57:08;19.23;;;13.47;;
8466;SDS011;4270;48.148;11.648;2023-05-14T07:59:33;18.37;;;12.50;;
8466;SDS011;4270;48.148;11.648;2023-05-14T08:01:58;19.07;;;12.40;;
8466;SDS011;4270;48.148;11.648;2023-05-14T08:04:24;14.93;;;10.40;;
8466;SDS011;4270;48.148;11.648;2023-05-14T08:06:49;13.63;;;10.70;;
8466;SDS011;4270;48.148;11.648;2023-05-14T08:09:14;15.37;;;11.07;;
8466;SDS011;4270;48.148;11.648;2023-05-14T08:11:39;16.77;;;11.70;;
8466;SDS011;4270;48.148;11.648;2023-05-14T08:14:05;17.67;;;11.97;;
8466;SDS011;4270;48.148;11.648;2023-05-14T08:16:30;16.37;;;10.73;;
8466;SDS011;4270;48.148;11.648;2023-05-14T08:18:55;18.70;;;11.83;;
8466;SDS011;4270;48.148;11.648;2023-05-14T08:21:20;18.23;;;12.47;;
8466;SDS011;4270;48.148;11.648;2023-05-14T08:23:46;18.10;;;12.00;;
8466;SDS011;4270;48.148;11.648;2023-05-14T08:26:11;19.63;;;13.00;;
8466;SDS011;4270;48.148;11.648;2023-05-14T08:28:36;18.63;;;12.10;;
8466;SDS011;4270;48.148;11.648;2023-05-14T08:31:01;18.98;;;12.57;;
8466;SDS011;4270;48.148;11.648;2023-05-14T08:33:26;20.90;;;13.90;;
8466;SDS011;4270;48.148;11.648;2023-05-14T08:35:52;21.80;;;13.33;;
8466;SDS011;4270;48.148;11.648;2023-05-14T08:38:17;22.77;;;13.80;;
8466;SDS011;4270;48.148;11.648;2023-05-14T08:40:46;17.20;;;12.60;;
8466;SDS011;4270;48.148;11.648;2023-05-14T08:43:11;16.27;;;12.73;;
8466;SDS011;4270;48.148;11.648;2023-05-14T08:45:37;16.97;;;13.47;;
8466;SDS011;4270;48.148;11.648;2023-05-14T08:48:03;17.63;;;11.70;;
8466;SDS011;4270;48.148;11.648;2023-05-14T08:50:32;19.60;;;12.23;;
8466;SDS011;4270;48.148;11.648;2023-05-14T08:52:57;16.87;;;13.00;;
8466;SDS011;4270;48.148;11.648;2023-05-14T08:55:23;16.93;;;12.17;;
8466;SDS011;4270;48.148;11.648;2023-05-14T08:57:49;15.50;;;11.90;;
8466;SDS011;4270;48.148;11.648;2023-05-14T09:00:15;15.10;;;11.50;;
8466;SDS011;4270;48.148;11.648;2023-05-14T09:02:40;18.13;;;11.60;;
8466;SDS011;4270;48.148;11.648;2023-05-14T09:05:06;15.73;;;11.83;;
8466;SDS011;4270;48.148;11.648;2023-05-14T09:07:33;14.07;;;10.53;;
8466;SDS011;4270;48.148;11.648;2023-05-14T09:09:58;16.77;;;11.20;;
8466;SDS011;4270;48.148;11.648;2023-05-14T09:12:23;14.57;;;10.70;;
8466;SDS011;4270;48.148;11.648;2023-05-14T09:14:49;14.37;;;9.00;;
8466;SDS011;4270;48.148;11.648;2023-05-14T09:17:14;14.13;;;10.23;;
8466;SDS011;4270;48.148;11.648;2023-05-14T09:19:40;16.60;;;10.57;;
8466;SDS011;4270;48.148;11.648;2023-05-14T09:22:13;12.20;;;9.10;;
8466;SDS011;4270;48.148;11.648;2023-05-14T09:24:38;14.63;;;10.10;;
8466;SDS011;4270;48.148;11.648;2023-05-14T09:27:04;11.33;;;9.07;;
8466;SDS011;4270;48.148;11.648;2023-05-14T09:29:29;14.40;;;10.27;;
8466;SDS011;4270;48.148;11.648;2023-05-14T09:31:55;11.50;;;9.07;;
8466;SDS011;4270;48.148;11.648;2023-05-14T09:34:28;14.00;;;9.27;;
8466;SDS011;4270;48.148;11.648;2023-05-14T09:36:55;13.50;;;9.80;;
8466;SDS011;4270;48.148;11.648;2023-05-14T09:39:21;14.63;;;9.90;;
8466;SDS011;4270;48.148;11.648;2023-05-14T09:41:47;11.87;;;9.90;;
8466;SDS011;4270;48.148;11.648;2023-05-14T09:44:12;14.30;;;10.00;;
8466;SDS011;4270;48.148;11.648;2023-05-14T09:46:38;12.40;;;8.60;;
8466;SDS011;4270;48.148;11.648;2023-05-14T09:49:03;10.27;;;8.47;;
8466;SDS011;4270;48.148;11.648;2023-05-14T09:51:28;10.27;;;8.57;;
8466;SDS011;4270;48.148;11.648;2023-05-14T09:53:55;10.70;;;7.80;;
8466;SDS011;4270;48.148;11.648;2023-05-14T09:56:21;10.00;;;8.50;;
8466;SDS011;4270;48.148;11.648;2023-05-14T09:58:46;12.43;;;8.77;;
8466;SDS011;4270;48.148;11.648;2023-05-14T10:01:11;13.80;;;8.50;;
8466;SDS011;4270;48.148;11.648;2023-05-14T10:03:38;9.90;;;8.20;;
8466;SDS011;4270;48.148;11.648;2023-05-14T10:06:03;12.90;;;9.23;;
8466;SDS011;4270;48.148;11.648;2023-05-14T10:08:31;9.87;;;8.10;;
8466;SDS011;4270;48.148;11.648;2023-05-14T10:10:57;12.27;;;8.60;;
8466;SDS011;4270;48.148;11.648;2023-05-14T10:13:23;11.93;;;8.20;;
8466;SDS011;4270;48.148;11.648;2023-05-14T10:15:59;10.30;;;8.00;;
8466;SDS011;4270;48.148;11.648;2023-05-14T10:18:25;12.50;;;9.20;;
8466;SDS011;4270;48.148;11.648;2023-05-14T10:20:52;11.77;;;8.70;;
8466;SDS011;4270;48.148;11.648;2023-05-14T10:23:20;14.00;;;9.03;;
8466;SDS011;4270;48.148;11.648;2023-05-14T10:25:45;12.03;;;8.67;;
8466;SDS011;4270;48.148;11.648;2023-05-14T10:28:10;10.43;;;7.93;;
8466;SDS011;4270;48.148;11.648;2023-05-14T10:30:40;9.63;;;8.17;;
8466;SDS011;4270;48.148;11.648;2023-05-14T10:33:08;10.03;;;7.37;;
8466;SDS011;4270;48.148;11.648;2023-05-14T10:36:16;9.47;;;7.87;;
8466;SDS011;4270;48.148;11.648;2023-05-14T10:38:31;9.87;;;7.73;;
8466;SDS011;4270;48.148;11.648;2023-05-14T10:41:09;10.53;;;8.20;;
8466;SDS011;4270;48.148;11.648;2023-05-14T10:43:36;8.53;;;7.20;;
8466;SDS011;4270;48.148;11.648;2023-05-14T10:46:02;9.07;;;6.83;;
8466;SDS011;4270;48.148;11.648;2023-05-14T10:48:27;7.73;;;6.93;;
8466;SDS011;4270;48.148;11.648;2023-05-14T10:50:53;9.87;;;7.50;;
8466;SDS011;4270;48.148;11.648;2023-05-14T10:53:19;9.70;;;7.83;;
8466;SDS011;4270;48.148;11.648;2023-05-14T10:55:44;7.60;;;6.57;;
8466;SDS011;4270;48.148;11.648;2023-05-14T10:58:10;13.10;;;9.90;;
8466;SDS011;4270;48.148;11.648;2023-05-14T11:00:36;8.63;;;7.30;;
8466;SDS011;4270;48.148;11.648;2023-05-14T11:03:04;8.20;;;7.10;;
8466;SDS011;4270;48.148;11.648;2023-05-14T11:05:30;8.53;;;7.40;;
8466;SDS011;4270;48.148;11.648;2023-05-14T11:07:56;9.80;;;7.10;;
8466;SDS011;4270;48.148;11.648;2023-05-14T11:10:22;8.33;;;6.80;;
8466;SDS011;4270;48.148;11.648;2023-05-14T11:12:49;9.23;;;6.70;;
8466;SDS011;4270;48.148;11.648;2023-05-14T11:15:19;8.03;;;7.23;;
8466;SDS011;4270;48.148;11.648;2023-05-14T11:17:45;11.03;;;7.20;;
8466;SDS011;4270;48.148;11.648;2023-05-14T11:20:11;9.10;;;6.63;;
8466;SDS011;4270;48.148;11.648;2023-05-14T11:22:37;8.00;;;6.03;;
8466;SDS011;4270;48.148;11.648;2023-05-14T11:25:03;8.47;;;6.60;;
8466;SDS011;4270;48.148;11.648;2023-05-14T11:27:28;8.37;;;7.17;;
8466;SDS011;4270;48.148;11.648;2023-05-14T11:29:55;9.07;;;6.60;;
8466;SDS011;4270;48.148;11.648;2023-05-14T11:32:20;8.70;;;7.17;;
8466;SDS011;4270;48.148;11.648;2023-05-14T11:34:45;6.97;;;6.00;;
8466;SDS011;4270;48.148;11.648;2023-05-14T11:37:11;6.87;;;6.17;;
8466;SDS011;4270;48.148;11.648;2023-05-14T11:39:37;7.30;;;5.90;;
8466;SDS011;4270;48.148;11.648;2023-05-14T11:42:11;6.27;;;5.60;;
8466;SDS011;4270;48.148;11.648;2023-05-14T11:44:38;7.53;;;6.00;;
8466;SDS011;4270;48.148;11.648;2023-05-14T11:47:03;6.10;;;5.47;;
8466;SDS011;4270;48.148;11.648;2023-05-14T11:49:29;7.30;;;6.60;;
8466;SDS011;4270;48.148;11.648;2023-05-14T11:52:01;7.00;;;6.00;;
8466;SDS011;4270;48.148;11.648;2023-05-14T11:54:27;7.00;;;6.00;;
8466;SDS011;4270;48.148;11.648;2023-05-14T11:56:53;6.07;;;5.47;;
8466;SDS011;4270;48.148;11.648;2023-05-14T11:59:18;6.67;;;6.03;;
8466;SDS011;4270;48.148;11.648;2023-05-14T12:01:44;7.00;;;6.37;;
8466;SDS011;4270;48.148;11.648;2023-05-14T12:04:10;6.30;;;5.70;;
8466;SDS011;4270;48.148;11.648;2023-05-14T12:06:37;6.07;;;5.47;;
8466;SDS011;4270;48.148;11.648;2023-05-14T12:09:03;7.70;;;6.10;;
8466;SDS011;4270;48.148;11.648;2023-05-14T12:11:32;6.93;;;6.23;;
8466;SDS011;4270;48.148;11.648;2023-05-14T12:13:58;6.10;;;5.50;;
8466;SDS011;4270;48.148;11.648;2023-05-14T12:16:23;6.63;;;5.40;;
8466;SDS011;4270;48.148;11.648;2023-05-14T12:18:53;6.20;;;5.60;;
8466;SDS011;4270;48.148;11.648;2023-05-14T12:21:18;6.10;;;5.50;;
8466;SDS011;4270;48.148;11.648;2023-05-14T12:23:43;6.17;;;5.57;;
8466;SDS011;4270;48.148;11.648;2023-05-14T12:26:09;6.33;;;5.73;;
8466;SDS011;4270;48.148;11.648;2023-05-14T12:28:34;6.47;;;5.87;;
8466;SDS011;4270;48.148;11.648;2023-05-14T12:31:00;6.70;;;6.00;;
8466;SDS011;4270;48.148;11.648;2023-05-14T12:33:25;6.23;;;5.63;;
8466;SDS011;4270;48.148;11.648;2023-05-14T12:35:51;6.87;;;6.17;;
8466;SDS011;4270;48.148;11.648;2023-05-14T12:38:17;6.40;;;5.80;;
8466;SDS011;4270;48.148;11.648;2023-05-14T12:40:43;6.37;;;5.77;;
8466;SDS011;4270;48.148;11.648;2023-05-14T12:43:08;6.83;;;5.80;;
8466;SDS011;4270;48.148;11.648;2023-05-14T12:45:33;6.10;;;5.37;;
8466;SDS011;4270;48.148;11.648;2023-05-14T12:47:58;5.70;;;5.18;;
8466;SDS011;4270;48.148;11.648;2023-05-14T12:50:23;13.30;;;5.90;;
8466;SDS011;4270;48.148;11.648;2023-05-14T12:52:48;7.23;;;5.97;;
8466;SDS011;4270;48.148;11.648;2023-05-14T12:55:14;6.90;;;5.30;;
8466;SDS011;4270;48.148;11.648;2023-05-14T12:57:39;6.53;;;4.73;;
8466;SDS011;4270;48.148;11.648;2023-05-14T13:00:04;6.30;;;5.70;;
8466;SDS011;4270;48.148;11.648;2023-05-14T13:02:31;5.67;;;5.07;;
8466;SDS011;4270;48.148;11.648;2023-05-14T13:04:56;7.50;;;5.70;;
8466;SDS011;4270;48.148;11.648;2023-05-14T13:07:22;6.23;;;5.63;;
8466;SDS011;4270;48.148;11.648;2023-05-14T13:09:47;5.60;;;5.10;;
8466;SDS011;4270;48.148;11.648;2023-05-14T13:12:12;7.33;;;5.30;;
8466;SDS011;4270;48.148;11.648;2023-05-14T13:14:37;6.63;;;5.40;;
8466;SDS011;4270;48.148;11.648;2023-05-14T13:17:02;5.73;;;5.23;;
8466;SDS011;4270;48.148;11.648;2023-05-14T13:19:28;5.70;;;5.10;;
8466;SDS011;4270;48.148;11.648;2023-05-14T13:21:54;6.10;;;5.50;;
8466;SDS011;4270;48.148;11.648;2023-05-14T13:24:19;6.37;;;5.70;;
8466;SDS011;4270;48.148;11.648;2023-05-14T13:26:44;5.40;;;4.40;;
8466;SDS011;4270;48.148;11.648;2023-05-14T13:29:09;5.77;;;5.17;;
8466;SDS011;4270;48.148;11.648;2023-05-14T13:31:35;5.63;;;5.10;;
8466;SDS011;4270;48.148;11.648;2023-05-14T13:34:00;5.40;;;4.90;;
8466;SDS011;4270;48.148;11.648;2023-05-14T13:36:26;6.33;;;4.77;;
8466;SDS011;4270;48.148;11.648;2023-05-14T13:38:51;5.57;;;5.03;;
8466;SDS011;4270;48.148;11.648;2023-05-14T13:41:17;5.70;;;5.10;;
8466;SDS011;4270;48.148;11.648;2023-05-14T13:43:42;6.00;;;4.40;;
8466;SDS011;4270;48.148;11.648;2023-05-14T13:46:07;4.80;;;4.30;;
8466;SDS011;4270;48.148;11.648;2023-05-14T13:48:32;4.37;;;3.97;;
8466;SDS011;4270;48.148;11.648;2023-05-14T13:50:58;4.80;;;3.63;;
8466;SDS011;4270;48.148;11.648;2023-05-14T13:53:23;4.10;;;3.70;;
8466;SDS011;4270;48.148;11.648;2023-05-14T13:55:49;4.00;;;3.70;;
8466;SDS011;4270;48.148;11.648;2023-05-14T13:58:14;4.53;;;3.83;;
8466;SDS011;4270;48.148;11.648;2023-05-14T14:00:39;4.60;;;4.10;;
8466;SDS011;4270;48.148;11.648;2023-05-14T14:03:05;4.90;;;4.37;;
8466;SDS011;4270;48.148;11.648;2023-05-14T14:05:31;3.43;;;3.13;;
8466;SDS011;4270;48.148;11.648;2023-05-14T14:07:56;5.10;;;3.87;;
8466;SDS011;4270;48.148;11.648;2023-05-14T14:10:21;5.70;;;4.00;;
8466;SDS011;4270;48.148;11.648;2023-05-14T14:12:47;6.17;;;5.00;;
8466;SDS011;4270;48.148;11.648;2023-05-14T14:15:13;4.67;;;4.23;;
8466;SDS011;4270;48.148;11.648;2023-05-14T14:17:38;4.90;;;4.40;;
8466;SDS011;4270;48.148;11.648;2023-05-14T14:20:05;4.93;;;4.10;;
8466;SDS011;4270;48.148;11.648;2023-05-14T14:22:32;3.73;;;3.43;;
8466;SDS011;4270;48.148;11.648;2023-05-14T14:24:57;4.57;;;4.07;;
8466;SDS011;4270;48.148;11.648;2023-05-14T14:27:22;4.07;;;3.37;;
8466;SDS011;4270;48.148;11.648;2023-05-14T14:29:47;4.43;;;4.00;;
8466;SDS011;4270;48.148;11.648;2023-05-14T14:32:12;5.10;;;4.60;;
8466;SDS011;4270;48.148;11.648;2023-05-14T14:34:38;4.20;;;3.70;;
8466;SDS011;4270;48.148;11.648;2023-05-14T14:37:03;4.70;;;4.20;;